sensor_id;sensor_type;location;lat;lon;timestamp;P1;durP1;ratioP1;P2;durP2;ratioP2
29218;SDS011;16421;50.202;7.852;2023-06-22T00:03:20;2.58;;;2.25;;
29218;SDS011;16421;50.202;7.852;2023-06-22T00:08:25;2.45;;;2.13;;
29218;SDS011;16421;50.202;7.852;2023-06-22T00:13:29;2.00;;;1.77;;
29218;SDS011;16421;50.202;7.852;2023-06-22T00:18:32;3.05;;;2.13;;
29218;SDS011;16421;50.202;7.852;2023-06-22T00:23:37;2.58;;;2.28;;
29218;SDS011;16421;50.202;7.852;2023-06-22T00:28:40;2.13;;;1.70;;
29218;SDS011;16421;50.202;7.852;2023-06-22T00:33:44;2.20;;;2.00;;
29218;SDS011;16421;50.202;7.852;2023-06-22T00:38:49;3.33;;;2.30;;
29218;SDS011;16421;50.202;7.852;2023-06-22T00:43:52;2.33;;;2.00;;
29218;SDS011;16421;50.202;7.852;2023-06-22T00:48:56;2.40;;;1.98;;
29218;SDS011;16421;50.202;7.852;2023-06-22T00:54:03;2.75;;;2.17;;
29218;SDS011;16421;50.202;7.852;2023-06-22T00:59:07;4.13;;;2.17;;
29218;SDS011;16421;50.202;7.852;2023-06-22T01:04:13;2.78;;;2.13;;
29218;SDS011;16421;50.202;7.852;2023-06-22T01:09:19;3.60;;;2.50;;
29218;SDS011;16421;50.202;7.852;2023-06-22T01:14:28;3.22;;;2.70;;
29218;SDS011;16421;50.202;7.852;2023-06-22T01:19:46;2.50;;;2.30;;
29218;SDS011;16421;50.202;7.852;2023-06-22T01:25:09;3.03;;;2.28;;
29218;SDS011;16421;50.202;7.852;2023-06-22T01:30:16;2.47;;;2.15;;
29218;SDS011;16421;50.202;7.852;2023-06-22T01:35:21;2.38;;;1.90;;
29218;SDS011;16421;50.202;7.852;2023-06-22T01:40:25;3.38;;;2.22;;
29218;SDS011;16421;50.202;7.852;2023-06-22T01:45:30;3.08;;;2.47;;
29218;SDS011;16421;50.202;7.852;2023-06-22T01:50:34;4.00;;;2.10;;
29218;SDS011;16421;50.202;7.852;2023-06-22T01:55:37;3.38;;;2.13;;
29218;SDS011;16421;50.202;7.852;2023-06-22T02:00:44;2.03;;;1.83;;
29218;SDS011;16421;50.202;7.852;2023-06-22T02:05:52;4.53;;;2.22;;
29218;SDS011;16421;50.202;7.852;2023-06-22T02:10:59;2.10;;;1.90;;
29218;SDS011;16421;50.202;7.852;2023-06-22T02:16:05;3.10;;;2.57;;
29218;SDS011;16421;50.202;7.852;2023-06-22T02:21:08;3.30;;;2.40;;
29218;SDS011;16421;50.202;7.852;2023-06-22T02:26:12;2.58;;;1.95;;
29218;SDS011;16421;50.202;7.852;2023-06-22T02:31:20;3.85;;;2.15;;
29218;SDS011;16421;50.202;7.852;2023-06-22T02:36:23;3.10;;;2.10;;
29218;SDS011;16421;50.202;7.852;2023-06-22T02:41:28;2.75;;;2.17;;
29218;SDS011;16421;50.202;7.852;2023-06-22T02:46:33;2.38;;;1.88;;
29218;SDS011;16421;50.202;7.852;2023-06-22T02:51:38;2.70;;;2.03;;
29218;SDS011;16421;50.202;7.852;2023-06-22T02:56:44;2.30;;;2.10;;
29218;SDS011;16421;50.202;7.852;2023-06-22T03:01:49;2.45;;;2.20;;
29218;SDS011;16421;50.202;7.852;2023-06-22T03:06:57;3.13;;;2.35;;
29218;SDS011;16421;50.202;7.852;2023-06-22T03:12:04;3.22;;;2.75;;
29218;SDS011;16421;50.202;7.852;2023-06-22T03:17:17;3.35;;;2.30;;
29218;SDS011;16421;50.202;7.852;2023-06-22T03:22:21;2.40;;;1.97;;
29218;SDS011;16421;50.202;7.852;2023-06-22T03:27:24;2.60;;;2.08;;
29218;SDS011;16421;50.202;7.852;2023-06-22T03:32:29;3.10;;;2.22;;
29218;SDS011;16421;50.202;7.852;2023-06-22T03:37:33;3.50;;;2.20;;
29218;SDS011;16421;50.202;7.852;2023-06-22T03:42:36;4.40;;;2.05;;
29218;SDS011;16421;50.202;7.852;2023-06-22T03:47:41;2.50;;;2.13;;
29218;SDS011;16421;50.202;7.852;2023-06-22T03:52:45;3.17;;;2.35;;
29218;SDS011;16421;50.202;7.852;2023-06-22T03:57:49;2.40;;;2.13;;
29218;SDS011;16421;50.202;7.852;2023-06-22T04:02:54;3.05;;;2.40;;
29218;SDS011;16421;50.202;7.852;2023-06-22T04:07:57;2.47;;;2.10;;
29218;SDS011;16421;50.202;7.852;2023-06-22T04:13:01;4.13;;;2.28;;
29218;SDS011;16421;50.202;7.852;2023-06-22T04:18:06;4.93;;;2.50;;
29218;SDS011;16421;50.202;7.852;2023-06-22T04:23:09;3.27;;;2.20;;
29218;SDS011;16421;50.202;7.852;2023-06-22T04:28:13;4.80;;;2.50;;
29218;SDS011;16421;50.202;7.852;2023-06-22T04:33:18;3.00;;;2.42;;
29218;SDS011;16421;50.202;7.852;2023-06-22T04:38:22;3.17;;;2.03;;
29218;SDS011;16421;50.202;7.852;2023-06-22T04:43:25;6.15;;;2.25;;
29218;SDS011;16421;50.202;7.852;2023-06-22T04:48:32;2.80;;;2.50;;
29218;SDS011;16421;50.202;7.852;2023-06-22T04:53:36;6.18;;;2.60;;
29218;SDS011;16421;50.202;7.852;2023-06-22T04:58:42;5.47;;;2.42;;
29218;SDS011;16421;50.202;7.852;2023-06-22T05:03:47;7.68;;;2.75;;
29218;SDS011;16421;50.202;7.852;2023-06-22T05:08:51;4.40;;;2.55;;
29218;SDS011;16421;50.202;7.852;2023-06-22T05:13:58;5.45;;;2.67;;
29218;SDS011;16421;50.202;7.852;2023-06-22T05:19:03;3.67;;;2.42;;
29218;SDS011;16421;50.202;7.852;2023-06-22T05:24:07;3.63;;;2.43;;
29218;SDS011;16421;50.202;7.852;2023-06-22T05:29:11;3.65;;;2.40;;
29218;SDS011;16421;50.202;7.852;2023-06-22T05:34:16;5.28;;;2.47;;
29218;SDS011;16421;50.202;7.852;2023-06-22T05:39:19;3.92;;;2.60;;
29218;SDS011;16421;50.202;7.852;2023-06-22T05:44:23;3.65;;;2.40;;
29218;SDS011;16421;50.202;7.852;2023-06-22T05:49:28;2.65;;;2.17;;
29218;SDS011;16421;50.202;7.852;2023-06-22T05:54:34;3.05;;;2.38;;
29218;SDS011;16421;50.202;7.852;2023-06-22T05:59:37;4.47;;;3.00;;
29218;SDS011;16421;50.202;7.852;2023-06-22T06:04:42;4.05;;;2.58;;
29218;SDS011;16421;50.202;7.852;2023-06-22T06:09:45;3.40;;;2.53;;
29218;SDS011;16421;50.202;7.852;2023-06-22T06:14:49;3.47;;;3.00;;
29218;SDS011;16421;50.202;7.852;2023-06-22T06:19:56;4.07;;;3.47;;
29218;SDS011;16421;50.202;7.852;2023-06-22T06:25:01;3.63;;;2.65;;
29218;SDS011;16421;50.202;7.852;2023-06-22T06:30:09;3.20;;;2.83;;
29218;SDS011;16421;50.202;7.852;2023-06-22T06:35:23;5.40;;;3.95;;
29218;SDS011;16421;50.202;7.852;2023-06-22T06:40:27;3.75;;;2.92;;
29218;SDS011;16421;50.202;7.852;2023-06-22T06:45:38;4.50;;;3.70;;
29218;SDS011;16421;50.202;7.852;2023-06-22T06:50:45;3.15;;;2.63;;
29218;SDS011;16421;50.202;7.852;2023-06-22T06:55:48;3.42;;;3.13;;
29218;SDS011;16421;50.202;7.852;2023-06-22T07:00:57;6.50;;;3.22;;
29218;SDS011;16421;50.202;7.852;2023-06-22T07:12:16;3.10;;;2.80;;
29218;SDS011;16421;50.202;7.852;2023-06-22T07:25:13;6.85;;;3.35;;
29218;SDS011;16421;50.202;7.852;2023-06-22T07:30:18;3.83;;;3.22;;
29218;SDS011;16421;50.202;7.852;2023-06-22T07:35:21;3.55;;;2.85;;
29218;SDS011;16421;50.202;7.852;2023-06-22T07:40:24;4.10;;;2.90;;
29218;SDS011;16421;50.202;7.852;2023-06-22T07:45:29;3.10;;;2.70;;
29218;SDS011;16421;50.202;7.852;2023-06-22T07:50:34;3.95;;;3.47;;
29218;SDS011;16421;50.202;7.852;2023-06-22T07:55:37;5.05;;;3.75;;
29218;SDS011;16421;50.202;7.852;2023-06-22T08:00:42;4.45;;;3.85;;
29218;SDS011;16421;50.202;7.852;2023-06-22T08:05:45;4.78;;;4.13;;
29218;SDS011;16421;50.202;7.852;2023-06-22T08:10:50;3.95;;;3.55;;
29218;SDS011;16421;50.202;7.852;2023-06-22T08:15:54;5.28;;;3.42;;
29218;SDS011;16421;50.202;7.852;2023-06-22T08:20:58;5.07;;;3.33;;
29218;SDS011;16421;50.202;7.852;2023-06-22T08:26:01;3.92;;;3.53;;
29218;SDS011;16421;50.202;7.852;2023-06-22T08:31:06;4.75;;;4.00;;
29218;SDS011;16421;50.202;7.852;2023-06-22T08:36:10;4.28;;;3.28;;
29218;SDS011;16421;50.202;7.852;2023-06-22T08:41:14;3.72;;;3.30;;
29218;SDS011;16421;50.202;7.852;2023-06-22T08:46:19;4.35;;;3.55;;
29218;SDS011;16421;50.202;7.852;2023-06-22T08:51:24;6.38;;;5.32;;
29218;SDS011;16421;50.202;7.852;2023-06-22T08:56:27;6.47;;;5.10;;
29218;SDS011;16421;50.202;7.852;2023-06-22T09:01:32;4.22;;;3.67;;
29218;SDS011;16421;50.202;7.852;2023-06-22T09:06:35;5.50;;;3.67;;
29218;SDS011;16421;50.202;7.852;2023-06-22T09:11:42;5.38;;;3.90;;
29218;SDS011;16421;50.202;7.852;2023-06-22T09:16:47;4.03;;;3.63;;
29218;SDS011;16421;50.202;7.852;2023-06-22T09:21:50;3.90;;;3.50;;
29218;SDS011;16421;50.202;7.852;2023-06-22T09:26:53;4.55;;;3.95;;
29218;SDS011;16421;50.202;7.852;2023-06-22T09:31:58;4.10;;;3.70;;
29218;SDS011;16421;50.202;7.852;2023-06-22T09:37:02;6.15;;;4.38;;
29218;SDS011;16421;50.202;7.852;2023-06-22T09:42:05;4.60;;;3.67;;
29218;SDS011;16421;50.202;7.852;2023-06-22T09:47:11;3.93;;;3.03;;
29218;SDS011;16421;50.202;7.852;2023-06-22T09:52:15;4.20;;;3.77;;
29218;SDS011;16421;50.202;7.852;2023-06-22T09:57:18;3.50;;;3.20;;
29218;SDS011;16421;50.202;7.852;2023-06-22T10:02:23;4.07;;;3.58;;
29218;SDS011;16421;50.202;7.852;2023-06-22T10:07:26;4.60;;;3.38;;
29218;SDS011;16421;50.202;7.852;2023-06-22T10:12:30;4.63;;;3.15;;
29218;SDS011;16421;50.202;7.852;2023-06-22T10:17:34;6.40;;;3.10;;
29218;SDS011;16421;50.202;7.852;2023-06-22T10:22:38;4.68;;;2.78;;
29218;SDS011;16421;50.202;7.852;2023-06-22T10:27:42;3.78;;;3.47;;
29218;SDS011;16421;50.202;7.852;2023-06-22T10:32:46;4.10;;;3.28;;
29218;SDS011;16421;50.202;7.852;2023-06-22T10:37:50;3.33;;;2.95;;
29218;SDS011;16421;50.202;7.852;2023-06-22T10:42:53;3.58;;;3.17;;
29218;SDS011;16421;50.202;7.852;2023-06-22T10:47:58;3.70;;;3.38;;
29218;SDS011;16421;50.202;7.852;2023-06-22T10:53:01;4.13;;;2.88;;
29218;SDS011;16421;50.202;7.852;2023-06-22T10:58:04;3.20;;;2.60;;
29218;SDS011;16421;50.202;7.852;2023-06-22T11:03:10;4.22;;;2.13;;
29218;SDS011;16421;50.202;7.852;2023-06-22T11:08:14;3.58;;;3.25;;
29218;SDS011;16421;50.202;7.852;2023-06-22T11:13:17;4.65;;;3.80;;
29218;SDS011;16421;50.202;7.852;2023-06-22T11:18:22;3.78;;;3.05;;
29218;SDS011;16421;50.202;7.852;2023-06-22T11:28:29;4.70;;;3.00;;
29218;SDS011;16421;50.202;7.852;2023-06-22T11:33:34;2.53;;;2.25;;
29218;SDS011;16421;50.202;7.852;2023-06-22T11:38:37;4.85;;;3.90;;
29218;SDS011;16421;50.202;7.852;2023-06-22T11:43:41;4.20;;;3.13;;
29218;SDS011;16421;50.202;7.852;2023-06-22T11:48:45;3.17;;;2.83;;
29218;SDS011;16421;50.202;7.852;2023-06-22T11:58:52;4.40;;;2.53;;
29218;SDS011;16421;50.202;7.852;2023-06-22T12:03:56;3.53;;;2.90;;
29218;SDS011;16421;50.202;7.852;2023-06-22T12:14:05;2.67;;;2.45;;
29218;SDS011;16421;50.202;7.852;2023-06-22T12:19:10;3.55;;;3.00;;
29218;SDS011;16421;50.202;7.852;2023-06-22T12:24:13;4.03;;;2.92;;
29218;SDS011;16421;50.202;7.852;2023-06-22T12:29:17;5.07;;;4.07;;
29218;SDS011;16421;50.202;7.852;2023-06-22T12:34:22;4.10;;;3.70;;
29218;SDS011;16421;50.202;7.852;2023-06-22T12:39:25;4.75;;;3.30;;
29218;SDS011;16421;50.202;7.852;2023-06-22T12:44:29;3.97;;;2.70;;
29218;SDS011;16421;50.202;7.852;2023-06-22T12:49:33;3.88;;;3.10;;
29218;SDS011;16421;50.202;7.852;2023-06-22T12:54:37;3.83;;;3.42;;
29218;SDS011;16421;50.202;7.852;2023-06-22T12:59:47;4.35;;;3.60;;
29218;SDS011;16421;50.202;7.852;2023-06-22T13:04:51;5.32;;;3.45;;
29218;SDS011;16421;50.202;7.852;2023-06-22T13:09:55;4.13;;;2.80;;
29218;SDS011;16421;50.202;7.852;2023-06-22T13:14:58;5.88;;;3.75;;
29218;SDS011;16421;50.202;7.852;2023-06-22T13:20:05;5.03;;;3.17;;
29218;SDS011;16421;50.202;7.852;2023-06-22T13:25:10;3.08;;;2.63;;
29218;SDS011;16421;50.202;7.852;2023-06-22T13:30:14;5.25;;;3.03;;
29218;SDS011;16421;50.202;7.852;2023-06-22T13:35:19;4.17;;;3.13;;
29218;SDS011;16421;50.202;7.852;2023-06-22T13:40:23;4.53;;;3.25;;
29218;SDS011;16421;50.202;7.852;2023-06-22T13:50:32;3.75;;;2.15;;
29218;SDS011;16421;50.202;7.852;2023-06-22T13:55:35;4.85;;;2.58;;
29218;SDS011;16421;50.202;7.852;2023-06-22T14:00:39;8.63;;;3.60;;
29218;SDS011;16421;50.202;7.852;2023-06-22T14:05:44;8.93;;;2.97;;
29218;SDS011;16421;50.202;7.852;2023-06-22T14:10:48;6.07;;;2.58;;
29218;SDS011;16421;50.202;7.852;2023-06-22T14:41:18;8.13;;;3.63;;
29218;SDS011;16421;50.202;7.852;2023-06-22T14:46:22;5.85;;;1.80;;
29218;SDS011;16421;50.202;7.852;2023-06-22T14:51:26;3.00;;;1.33;;
29218;SDS011;16421;50.202;7.852;2023-06-22T14:56:33;4.53;;;1.48;;
29218;SDS011;16421;50.202;7.852;2023-06-22T15:01:36;3.30;;;1.45;;
29218;SDS011;16421;50.202;7.852;2023-06-22T15:06:41;4.30;;;1.50;;
29218;SDS011;16421;50.202;7.852;2023-06-22T15:11:47;5.82;;;1.50;;
29218;SDS011;16421;50.202;7.852;2023-06-22T15:16:50;2.97;;;1.40;;
29218;SDS011;16421;50.202;7.852;2023-06-22T15:21:53;5.93;;;1.33;;
29218;SDS011;16421;50.202;7.852;2023-06-22T15:26:58;5.60;;;1.20;;
29218;SDS011;16421;50.202;7.852;2023-06-22T15:32:02;3.03;;;1.40;;
29218;SDS011;16421;50.202;7.852;2023-06-22T15:37:06;8.98;;;3.13;;
29218;SDS011;16421;50.202;7.852;2023-06-22T15:42:11;5.95;;;1.83;;
29218;SDS011;16421;50.202;7.852;2023-06-22T15:47:15;5.37;;;1.27;;
29218;SDS011;16421;50.202;7.852;2023-06-22T15:52:22;3.08;;;1.55;;
29218;SDS011;16421;50.202;7.852;2023-06-22T15:57:27;1.98;;;1.08;;
29218;SDS011;16421;50.202;7.852;2023-06-22T16:02:31;5.13;;;1.37;;
29218;SDS011;16421;50.202;7.852;2023-06-22T16:07:34;4.82;;;1.40;;
29218;SDS011;16421;50.202;7.852;2023-06-22T16:12:41;2.85;;;1.55;;
29218;SDS011;16421;50.202;7.852;2023-06-22T16:17:45;4.05;;;1.58;;
29218;SDS011;16421;50.202;7.852;2023-06-22T16:22:49;3.58;;;1.50;;
29218;SDS011;16421;50.202;7.852;2023-06-22T16:27:54;4.78;;;1.58;;
29218;SDS011;16421;50.202;7.852;2023-06-22T16:32:57;3.87;;;1.33;;
29218;SDS011;16421;50.202;7.852;2023-06-22T16:38:01;2.55;;;1.10;;
29218;SDS011;16421;50.202;7.852;2023-06-22T16:43:06;4.80;;;1.90;;
29218;SDS011;16421;50.202;7.852;2023-06-22T16:48:09;3.03;;;1.30;;
29218;SDS011;16421;50.202;7.852;2023-06-22T16:53:12;3.30;;;1.23;;
29218;SDS011;16421;50.202;7.852;2023-06-22T16:58:20;4.28;;;1.50;;
29218;SDS011;16421;50.202;7.852;2023-06-22T17:03:26;4.80;;;1.38;;
29218;SDS011;16421;50.202;7.852;2023-06-22T17:13:37;2.35;;;1.02;;
29218;SDS011;16421;50.202;7.852;2023-06-22T17:18:40;3.85;;;1.25;;
29218;SDS011;16421;50.202;7.852;2023-06-22T17:23:44;2.22;;;1.17;;
29218;SDS011;16421;50.202;7.852;2023-06-22T17:28:51;3.08;;;1.60;;
29218;SDS011;16421;50.202;7.852;2023-06-22T17:34:05;2.38;;;1.38;;
29218;SDS011;16421;50.202;7.852;2023-06-22T17:39:10;4.93;;;1.65;;
29218;SDS011;16421;50.202;7.852;2023-06-22T17:44:18;2.17;;;1.48;;
29218;SDS011;16421;50.202;7.852;2023-06-22T17:49:25;4.53;;;1.48;;
29218;SDS011;16421;50.202;7.852;2023-06-22T17:54:30;3.53;;;1.50;;
29218;SDS011;16421;50.202;7.852;2023-06-22T17:59:37;3.03;;;1.70;;
29218;SDS011;16421;50.202;7.852;2023-06-22T18:04:40;4.03;;;1.60;;
29218;SDS011;16421;50.202;7.852;2023-06-22T18:09:44;2.97;;;1.50;;
29218;SDS011;16421;50.202;7.852;2023-06-22T18:14:49;2.92;;;1.42;;
29218;SDS011;16421;50.202;7.852;2023-06-22T18:24:57;2.97;;;1.33;;
29218;SDS011;16421;50.202;7.852;2023-06-22T18:30:05;2.15;;;1.13;;
29218;SDS011;16421;50.202;7.852;2023-06-22T18:35:10;2.17;;;0.98;;
29218;SDS011;16421;50.202;7.852;2023-06-22T18:40:14;2.28;;;1.00;;
29218;SDS011;16421;50.202;7.852;2023-06-22T18:45:24;0.70;;;0.63;;
29218;SDS011;16421;50.202;7.852;2023-06-22T18:50:40;1.15;;;0.65;;
29218;SDS011;16421;50.202;7.852;2023-06-22T19:00:53;1.17;;;0.40;;
29218;SDS011;16421;50.202;7.852;2023-06-22T19:17:22;1.75;;;0.63;;
29218;SDS011;16421;50.202;7.852;2023-06-22T19:22:40;1.53;;;0.50;;
29218;SDS011;16421;50.202;7.852;2023-06-22T19:27:47;0.93;;;0.50;;
29218;SDS011;16421;50.202;7.852;2023-06-22T19:32:56;5.00;;;0.60;;
29218;SDS011;16421;50.202;7.852;2023-06-22T19:38:00;0.77;;;0.50;;
29218;SDS011;16421;50.202;7.852;2023-06-22T19:43:03;0.70;;;0.40;;
29218;SDS011;16421;50.202;7.852;2023-06-22T19:48:10;0.70;;;0.50;;
29218;SDS011;16421;50.202;7.852;2023-06-22T19:53:15;0.70;;;0.52;;
29218;SDS011;16421;50.202;7.852;2023-06-22T19:58:19;0.98;;;0.52;;
29218;SDS011;16421;50.202;7.852;2023-06-22T20:03:27;0.40;;;0.40;;
29218;SDS011;16421;50.202;7.852;2023-06-22T20:08:37;0.40;;;0.30;;
29218;SDS011;16421;50.202;7.852;2023-06-22T20:13:45;1.52;;;0.50;;
29218;SDS011;16421;50.202;7.852;2023-06-22T20:19:04;1.33;;;0.43;;
29218;SDS011;16421;50.202;7.852;2023-06-22T20:24:09;2.67;;;0.95;;
29218;SDS011;16421;50.202;7.852;2023-06-22T20:29:22;0.47;;;0.40;;
29218;SDS011;16421;50.202;7.852;2023-06-22T20:34:27;0.52;;;0.47;;
29218;SDS011;16421;50.202;7.852;2023-06-22T20:39:36;0.80;;;0.40;;
